Boise, ID (83722)

5:11 AM MST on December 11, 2016 (GMT -0700)
Mesa Vista | | Change Station
Active Advisory: Dense Fog Advisory

Elev 2766 ft 43.60 °N, 116.21 °W | Updated 28 seconds ago

Overcast
Overcast
29.5 °F
Feels Like 30 °F
N
0.0
Wind Variable Wind from WNW
Gusts 0.0 mph

Today
High -- | Low -- °F
--% Chance of Precip.
Yesterday
High -- | Low -- °F
Precip. -- in
Pressure 30.07 in
Visibility 0.2 miles
Clouds
Windchill 30 °F
Dew Point 29 °F
Humidity 98%
Rainfall 0.00 in
Snow Depth Not available.
8:08 AM 5:08 PM
Waxing Gibbous, 91% visible
SPECI KBOI 111209Z 00000KT 1/4SM R10R/1400V1800FT FZFG VV001 M03/M03 A3007 RMK AO2 T10281028
Pressure 30.07 in
Visibility 0.2 miles
Clouds
Windchill 30 °F
Dew Point 29 °F
Humidity 98%
Rainfall 0.00 in
Snow Depth Not available.
8:08 AM 5:08 PM
Waxing Gibbous, 91% visible
SPECI KBOI 111209Z 00000KT 1/4SM R10R/1400V1800FT FZFG VV001 M03/M03 A3007 RMK AO2 T10281028

10-Day Weather Forecast

Almanac

Astronomy

Dec. 11, 2016 Rise Set
Actual Time
Civil Twilight
Nautical Twilight
Astronomical Twilight
Moon
Length of Visible Light
Length of Day
Tomorrow will be .
, % of the Moon is Illuminated

Today's Extremes

State Highs State Lows

Community

WunderPhotos

Upload Photos

1,956,710 photos uploaded!

WunderBlog® & News

Nearby

Air Quality

  Air Quality AQ Index Pollutant
Not available.

Snow Depth

Station Depth Elevation

Earthquake Activity

City Distance Mag. Time & Date
Minimum magnitude displayed is 2.5.

Coastal Water Temperatures

Place Temperature

Stations

Nearby Weather Stations

Station Location Temp. Windchill Dew Point Humidity Wind Precip. Elev Updated Type
                   

Watches & Warnings

Dense Fog Advisory
Issued: 3:12 AM PST Dec. 11, 2016 – National Weather Service

... Dense fog advisory now in effect until 10 am MST /9 am PST/
this morning...

* visibility... one quarter mile or less

* impacts... travel may become hazardous as the reduction in
visibility may be sudden.

Precautionary/preparedness actions...

A dense fog advisory means visibilities will frequently be
reduced to less than one quarter mile. If driving... slow down...
use your headlights... and leave plenty of distance ahead of you.